sensor_id;sensor_type;location;lat;lon;timestamp;temperature;humidity
43581;DHT22;29175;51.030;4.606;2022-11-25T00:02:00;12.50;99.90
43581;DHT22;29175;51.030;4.606;2022-11-25T00:04:27;12.60;99.90
43581;DHT22;29175;51.030;4.606;2022-11-25T00:06:58;12.60;99.90
43581;DHT22;29175;51.030;4.606;2022-11-25T00:09:24;12.90;99.90
43581;DHT22;29175;51.030;4.606;2022-11-25T00:11:53;12.70;99.90
43581;DHT22;29175;51.030;4.606;2022-11-25T00:14:22;13.20;99.90
43581;DHT22;29175;51.030;4.606;2022-11-25T00:16:48;13.50;99.90
43581;DHT22;29175;51.030;4.606;2022-11-25T00:19:14;13.30;99.90
43581;DHT22;29175;51.030;4.606;2022-11-25T00:21:40;13.70;99.90
43581;DHT22;29175;51.030;4.606;2022-11-25T00:24:09;13.40;99.90
43581;DHT22;29175;51.030;4.606;2022-11-25T00:26:37;13.10;99.90
43581;DHT22;29175;51.030;4.606;2022-11-25T00:29:06;13.00;99.90
43581;DHT22;29175;51.030;4.606;2022-11-25T00:31:35;12.70;99.90
43581;DHT22;29175;51.030;4.606;2022-11-25T00:34:01;13.00;99.90
43581;DHT22;29175;51.030;4.606;2022-11-25T00:36:32;13.00;99.90
43581;DHT22;29175;51.030;4.606;2022-11-25T00:39:11;13.10;99.90
43581;DHT22;29175;51.030;4.606;2022-11-25T00:41:39;13.30;99.90
43581;DHT22;29175;51.030;4.606;2022-11-25T00:44:26;13.00;99.90
43581;DHT22;29175;51.030;4.606;2022-11-25T00:47:15;13.10;99.90
43581;DHT22;29175;51.030;4.606;2022-11-25T00:49:43;12.70;99.90
43581;DHT22;29175;51.030;4.606;2022-11-25T00:52:13;12.40;99.90
43581;DHT22;29175;51.030;4.606;2022-11-25T00:54:39;12.20;99.90
43581;DHT22;29175;51.030;4.606;2022-11-25T00:57:05;12.30;99.90
43581;DHT22;29175;51.030;4.606;2022-11-25T00:59:30;12.20;99.90
43581;DHT22;29175;51.030;4.606;2022-11-25T01:01:57;12.10;99.90
43581;DHT22;29175;51.030;4.606;2022-11-25T01:04:25;12.10;99.90
43581;DHT22;29175;51.030;4.606;2022-11-25T01:06:52;11.80;99.90
43581;DHT22;29175;51.030;4.606;2022-11-25T01:09:19;11.80;99.90
43581;DHT22;29175;51.030;4.606;2022-11-25T01:11:44;11.80;99.90
43581;DHT22;29175;51.030;4.606;2022-11-25T01:14:13;11.80;99.90
43581;DHT22;29175;51.030;4.606;2022-11-25T01:16:39;11.80;99.90
43581;DHT22;29175;51.030;4.606;2022-11-25T01:19:04;11.70;99.90
43581;DHT22;29175;51.030;4.606;2022-11-25T01:21:32;11.50;99.90
43581;DHT22;29175;51.030;4.606;2022-11-25T01:23:59;11.50;99.90
43581;DHT22;29175;51.030;4.606;2022-11-25T01:26:26;11.60;99.90
43581;DHT22;29175;51.030;4.606;2022-11-25T01:28:55;11.60;99.90
43581;DHT22;29175;51.030;4.606;2022-11-25T01:31:23;11.50;99.90
43581;DHT22;29175;51.030;4.606;2022-11-25T01:33:54;11.40;99.90
43581;DHT22;29175;51.030;4.606;2022-11-25T01:36:22;11.50;99.90
43581;DHT22;29175;51.030;4.606;2022-11-25T01:38:51;11.50;99.90
43581;DHT22;29175;51.030;4.606;2022-11-25T01:41:18;11.50;99.90
43581;DHT22;29175;51.030;4.606;2022-11-25T01:49:11;11.40;99.90
43581;DHT22;29175;51.030;4.606;2022-11-25T01:54:19;11.40;99.90
43581;DHT22;29175;51.030;4.606;2022-11-25T01:56:51;11.30;99.90
43581;DHT22;29175;51.030;4.606;2022-11-25T01:59:18;11.40;99.90
43581;DHT22;29175;51.030;4.606;2022-11-25T02:01:44;11.30;99.90
43581;DHT22;29175;51.030;4.606;2022-11-25T02:04:11;11.20;99.90
43581;DHT22;29175;51.030;4.606;2022-11-25T02:06:43;11.10;99.90
43581;DHT22;29175;51.030;4.606;2022-11-25T02:09:11;10.90;99.90
43581;DHT22;29175;51.030;4.606;2022-11-25T02:11:40;11.20;99.90
43581;DHT22;29175;51.030;4.606;2022-11-25T02:14:08;11.60;99.90
43581;DHT22;29175;51.030;4.606;2022-11-25T02:16:34;11.50;99.90
43581;DHT22;29175;51.030;4.606;2022-11-25T02:19:00;11.40;99.90
43581;DHT22;29175;51.030;4.606;2022-11-25T02:21:39;11.20;99.90
43581;DHT22;29175;51.030;4.606;2022-11-25T02:24:14;11.10;99.90
43581;DHT22;29175;51.030;4.606;2022-11-25T02:26:42;11.20;99.90
43581;DHT22;29175;51.030;4.606;2022-11-25T02:29:08;11.20;99.90
43581;DHT22;29175;51.030;4.606;2022-11-25T02:31:34;11.10;99.90
43581;DHT22;29175;51.030;4.606;2022-11-25T02:34:00;11.20;99.90
43581;DHT22;29175;51.030;4.606;2022-11-25T02:36:25;11.10;99.90
43581;DHT22;29175;51.030;4.606;2022-11-25T02:38:59;11.10;99.90
43581;DHT22;29175;51.030;4.606;2022-11-25T02:43:58;11.10;99.90
43581;DHT22;29175;51.030;4.606;2022-11-25T02:46:26;11.00;99.90
43581;DHT22;29175;51.030;4.606;2022-11-25T02:48:54;11.10;99.90
43581;DHT22;29175;51.030;4.606;2022-11-25T02:51:23;11.20;99.90
43581;DHT22;29175;51.030;4.606;2022-11-25T02:53:49;11.30;99.90
43581;DHT22;29175;51.030;4.606;2022-11-25T02:56:18;11.10;99.90
43581;DHT22;29175;51.030;4.606;2022-11-25T02:58:44;11.10;99.90
43581;DHT22;29175;51.030;4.606;2022-11-25T03:01:10;11.10;99.90
43581;DHT22;29175;51.030;4.606;2022-11-25T03:03:36;11.00;99.90
43581;DHT22;29175;51.030;4.606;2022-11-25T03:06:02;10.80;99.90
43581;DHT22;29175;51.030;4.606;2022-11-25T03:08:28;10.70;99.90
43581;DHT22;29175;51.030;4.606;2022-11-25T03:10:54;10.60;99.90
43581;DHT22;29175;51.030;4.606;2022-11-25T03:13:20;10.90;99.90
43581;DHT22;29175;51.030;4.606;2022-11-25T03:15:46;11.10;99.90
43581;DHT22;29175;51.030;4.606;2022-11-25T03:18:13;11.10;99.90
43581;DHT22;29175;51.030;4.606;2022-11-25T03:20:39;10.90;99.90
43581;DHT22;29175;51.030;4.606;2022-11-25T03:23:05;10.90;99.90
43581;DHT22;29175;51.030;4.606;2022-11-25T03:25:31;10.90;99.90
43581;DHT22;29175;51.030;4.606;2022-11-25T03:27:56;10.80;99.90
43581;DHT22;29175;51.030;4.606;2022-11-25T03:30:25;10.80;99.90
43581;DHT22;29175;51.030;4.606;2022-11-25T03:32:51;10.70;99.90
43581;DHT22;29175;51.030;4.606;2022-11-25T03:35:17;10.70;99.90
43581;DHT22;29175;51.030;4.606;2022-11-25T03:37:44;10.60;99.90
43581;DHT22;29175;51.030;4.606;2022-11-25T03:40:11;10.50;99.90
43581;DHT22;29175;51.030;4.606;2022-11-25T03:42:38;10.50;99.90
43581;DHT22;29175;51.030;4.606;2022-11-25T03:45:04;10.40;99.90
43581;DHT22;29175;51.030;4.606;2022-11-25T03:47:31;10.30;99.90
43581;DHT22;29175;51.030;4.606;2022-11-25T03:49:57;10.20;99.90
43581;DHT22;29175;51.030;4.606;2022-11-25T03:52:23;10.30;99.90
43581;DHT22;29175;51.030;4.606;2022-11-25T03:54:49;10.20;99.90
43581;DHT22;29175;51.030;4.606;2022-11-25T03:57:15;10.20;99.90
43581;DHT22;29175;51.030;4.606;2022-11-25T03:59:41;10.20;99.90
43581;DHT22;29175;51.030;4.606;2022-11-25T04:02:07;10.20;99.90
43581;DHT22;29175;51.030;4.606;2022-11-25T04:04:32;10.10;99.90
43581;DHT22;29175;51.030;4.606;2022-11-25T04:06:58;9.90;99.90
43581;DHT22;29175;51.030;4.606;2022-11-25T04:09:24;9.80;99.90
43581;DHT22;29175;51.030;4.606;2022-11-25T04:11:50;9.80;99.90
43581;DHT22;29175;51.030;4.606;2022-11-25T04:14:34;9.80;99.90
43581;DHT22;29175;51.030;4.606;2022-11-25T04:17:00;9.70;99.90
43581;DHT22;29175;51.030;4.606;2022-11-25T04:19:26;9.70;99.90
43581;DHT22;29175;51.030;4.606;2022-11-25T04:21:52;9.90;99.90
43581;DHT22;29175;51.030;4.606;2022-11-25T04:24:19;10.00;99.90
43581;DHT22;29175;51.030;4.606;2022-11-25T04:26:48;10.10;99.90
43581;DHT22;29175;51.030;4.606;2022-11-25T04:29:17;10.10;99.90
43581;DHT22;29175;51.030;4.606;2022-11-25T04:31:43;10.20;99.90
43581;DHT22;29175;51.030;4.606;2022-11-25T04:34:09;10.20;99.90
43581;DHT22;29175;51.030;4.606;2022-11-25T04:36:35;10.10;99.90
43581;DHT22;29175;51.030;4.606;2022-11-25T04:39:01;10.30;99.90
43581;DHT22;29175;51.030;4.606;2022-11-25T04:41:27;10.30;99.90
43581;DHT22;29175;51.030;4.606;2022-11-25T04:43:53;10.20;99.90
43581;DHT22;29175;51.030;4.606;2022-11-25T04:46:22;10.20;99.90
43581;DHT22;29175;51.030;4.606;2022-11-25T04:48:49;10.10;99.90
43581;DHT22;29175;51.030;4.606;2022-11-25T04:51:16;9.90;99.90
43581;DHT22;29175;51.030;4.606;2022-11-25T04:53:41;10.10;99.90
43581;DHT22;29175;51.030;4.606;2022-11-25T04:56:09;10.10;99.90
43581;DHT22;29175;51.030;4.606;2022-11-25T04:58:37;10.20;99.90
43581;DHT22;29175;51.030;4.606;2022-11-25T05:01:21;10.30;99.90
43581;DHT22;29175;51.030;4.606;2022-11-25T05:03:48;10.40;99.90
43581;DHT22;29175;51.030;4.606;2022-11-25T05:06:14;10.20;99.90
43581;DHT22;29175;51.030;4.606;2022-11-25T05:08:39;10.20;99.90
43581;DHT22;29175;51.030;4.606;2022-11-25T05:11:05;10.20;99.90
43581;DHT22;29175;51.030;4.606;2022-11-25T05:13:30;10.00;99.90
43581;DHT22;29175;51.030;4.606;2022-11-25T05:15:58;9.90;99.90
43581;DHT22;29175;51.030;4.606;2022-11-25T05:18:24;9.70;99.90
43581;DHT22;29175;51.030;4.606;2022-11-25T05:20:50;10.00;99.90
43581;DHT22;29175;51.030;4.606;2022-11-25T05:23:15;10.00;99.90
43581;DHT22;29175;51.030;4.606;2022-11-25T05:25:42;10.00;99.90
43581;DHT22;29175;51.030;4.606;2022-11-25T05:28:08;10.20;99.90
43581;DHT22;29175;51.030;4.606;2022-11-25T05:30:33;10.20;99.90
43581;DHT22;29175;51.030;4.606;2022-11-25T05:33:01;10.20;99.90
43581;DHT22;29175;51.030;4.606;2022-11-25T05:35:27;10.20;99.90
43581;DHT22;29175;51.030;4.606;2022-11-25T05:37:53;10.00;99.90
43581;DHT22;29175;51.030;4.606;2022-11-25T05:40:19;10.00;99.90
43581;DHT22;29175;51.030;4.606;2022-11-25T05:42:45;10.30;99.90
43581;DHT22;29175;51.030;4.606;2022-11-25T05:45:11;10.30;99.90
43581;DHT22;29175;51.030;4.606;2022-11-25T05:47:37;10.30;99.90
43581;DHT22;29175;51.030;4.606;2022-11-25T05:50:03;10.20;99.90
43581;DHT22;29175;51.030;4.606;2022-11-25T05:52:29;10.00;99.90
43581;DHT22;29175;51.030;4.606;2022-11-25T05:54:55;10.00;99.90
43581;DHT22;29175;51.030;4.606;2022-11-25T05:57:20;9.90;99.90
43581;DHT22;29175;51.030;4.606;2022-11-25T05:59:46;10.00;99.90
43581;DHT22;29175;51.030;4.606;2022-11-25T06:02:12;10.10;99.90
43581;DHT22;29175;51.030;4.606;2022-11-25T06:04:37;10.10;99.90
43581;DHT22;29175;51.030;4.606;2022-11-25T06:07:03;10.10;99.90
43581;DHT22;29175;51.030;4.606;2022-11-25T06:09:29;9.80;99.90
43581;DHT22;29175;51.030;4.606;2022-11-25T06:11:55;9.80;99.90
43581;DHT22;29175;51.030;4.606;2022-11-25T06:14:21;9.90;99.90
43581;DHT22;29175;51.030;4.606;2022-11-25T06:16:46;9.90;99.90
43581;DHT22;29175;51.030;4.606;2022-11-25T06:19:12;9.80;99.90
43581;DHT22;29175;51.030;4.606;2022-11-25T06:21:38;9.80;99.90
43581;DHT22;29175;51.030;4.606;2022-11-25T06:24:03;9.80;99.90
43581;DHT22;29175;51.030;4.606;2022-11-25T06:26:29;9.90;99.90
43581;DHT22;29175;51.030;4.606;2022-11-25T06:28:55;9.80;99.90
43581;DHT22;29175;51.030;4.606;2022-11-25T06:31:23;9.70;99.90
43581;DHT22;29175;51.030;4.606;2022-11-25T06:33:50;9.60;99.90
43581;DHT22;29175;51.030;4.606;2022-11-25T06:36:17;9.60;99.90
43581;DHT22;29175;51.030;4.606;2022-11-25T06:38:48;9.80;99.90
43581;DHT22;29175;51.030;4.606;2022-11-25T06:41:14;9.80;99.90
43581;DHT22;29175;51.030;4.606;2022-11-25T06:43:40;9.80;99.90
43581;DHT22;29175;51.030;4.606;2022-11-25T06:46:09;9.80;99.90
43581;DHT22;29175;51.030;4.606;2022-11-25T06:48:35;9.90;99.90
43581;DHT22;29175;51.030;4.606;2022-11-25T06:51:04;10.00;99.90
43581;DHT22;29175;51.030;4.606;2022-11-25T06:53:30;9.80;99.90
43581;DHT22;29175;51.030;4.606;2022-11-25T06:56:15;9.80;99.90
43581;DHT22;29175;51.030;4.606;2022-11-25T06:58:42;9.80;99.90
43581;DHT22;29175;51.030;4.606;2022-11-25T07:01:22;9.80;99.90
43581;DHT22;29175;51.030;4.606;2022-11-25T07:03:53;9.70;99.90
43581;DHT22;29175;51.030;4.606;2022-11-25T07:06:20;9.60;99.90
43581;DHT22;29175;51.030;4.606;2022-11-25T07:08:46;9.50;99.90
43581;DHT22;29175;51.030;4.606;2022-11-25T07:13:42;9.50;99.90
43581;DHT22;29175;51.030;4.606;2022-11-25T07:16:10;9.50;99.90
43581;DHT22;29175;51.030;4.606;2022-11-25T07:18:37;9.40;99.90
43581;DHT22;29175;51.030;4.606;2022-11-25T07:21:20;9.60;99.90
43581;DHT22;29175;51.030;4.606;2022-11-25T07:23:47;9.70;99.90
43581;DHT22;29175;51.030;4.606;2022-11-25T07:28:43;9.60;99.90
43581;DHT22;29175;51.030;4.606;2022-11-25T07:31:18;9.60;99.90
43581;DHT22;29175;51.030;4.606;2022-11-25T07:33:44;9.80;99.90
43581;DHT22;29175;51.030;4.606;2022-11-25T07:36:12;9.80;99.90
43581;DHT22;29175;51.030;4.606;2022-11-25T07:38:38;9.80;99.90
43581;DHT22;29175;51.030;4.606;2022-11-25T07:41:08;9.80;99.90
43581;DHT22;29175;51.030;4.606;2022-11-25T07:43:35;9.80;99.90
43581;DHT22;29175;51.030;4.606;2022-11-25T07:46:14;9.60;99.90
43581;DHT22;29175;51.030;4.606;2022-11-25T07:48:40;9.70;99.90
43581;DHT22;29175;51.030;4.606;2022-11-25T07:51:21;9.70;99.90
43581;DHT22;29175;51.030;4.606;2022-11-25T07:53:48;9.90;99.90
43581;DHT22;29175;51.030;4.606;2022-11-25T07:56:15;9.90;99.90
43581;DHT22;29175;51.030;4.606;2022-11-25T07:58:41;9.90;99.90
43581;DHT22;29175;51.030;4.606;2022-11-25T08:01:08;10.10;99.90
43581;DHT22;29175;51.030;4.606;2022-11-25T08:03:35;10.10;99.90
43581;DHT22;29175;51.030;4.606;2022-11-25T08:06:02;10.10;99.90
43581;DHT22;29175;51.030;4.606;2022-11-25T08:08:28;10.00;99.90
43581;DHT22;29175;51.030;4.606;2022-11-25T08:10:54;10.20;99.90
43581;DHT22;29175;51.030;4.606;2022-11-25T08:13:20;10.10;99.90
43581;DHT22;29175;51.030;4.606;2022-11-25T08:15:46;10.00;99.90
43581;DHT22;29175;51.030;4.606;2022-11-25T08:18:11;10.00;99.90
43581;DHT22;29175;51.030;4.606;2022-11-25T08:20:37;10.10;99.90
43581;DHT22;29175;51.030;4.606;2022-11-25T08:23:03;10.00;99.90
43581;DHT22;29175;51.030;4.606;2022-11-25T08:25:28;10.00;99.90
43581;DHT22;29175;51.030;4.606;2022-11-25T08:27:59;9.90;99.90
43581;DHT22;29175;51.030;4.606;2022-11-25T08:30:25;10.00;99.90
43581;DHT22;29175;51.030;4.606;2022-11-25T08:32:51;9.90;99.90
43581;DHT22;29175;51.030;4.606;2022-11-25T08:35:18;9.90;99.90
43581;DHT22;29175;51.030;4.606;2022-11-25T08:37:44;10.10;99.90
43581;DHT22;29175;51.030;4.606;2022-11-25T08:40:11;10.30;99.90
43581;DHT22;29175;51.030;4.606;2022-11-25T08:42:37;10.30;99.90
43581;DHT22;29175;51.030;4.606;2022-11-25T08:45:04;10.30;99.90
43581;DHT22;29175;51.030;4.606;2022-11-25T08:47:30;10.30;99.90
43581;DHT22;29175;51.030;4.606;2022-11-25T08:49:56;10.20;99.90
43581;DHT22;29175;51.030;4.606;2022-11-25T08:52:22;10.50;99.90
43581;DHT22;29175;51.030;4.606;2022-11-25T08:54:49;10.50;99.90
43581;DHT22;29175;51.030;4.606;2022-11-25T08:57:15;10.50;99.90
43581;DHT22;29175;51.030;4.606;2022-11-25T08:59:41;10.60;99.90
43581;DHT22;29175;51.030;4.606;2022-11-25T09:02:08;10.70;99.90
43581;DHT22;29175;51.030;4.606;2022-11-25T09:04:36;10.90;99.90
43581;DHT22;29175;51.030;4.606;2022-11-25T09:07:03;11.00;99.90
43581;DHT22;29175;51.030;4.606;2022-11-25T09:09:29;10.90;99.90
43581;DHT22;29175;51.030;4.606;2022-11-25T09:11:54;11.00;99.90
43581;DHT22;29175;51.030;4.606;2022-11-25T09:14:20;10.90;99.90
43581;DHT22;29175;51.030;4.606;2022-11-25T09:16:46;10.90;99.90
43581;DHT22;29175;51.030;4.606;2022-11-25T09:19:12;10.90;99.90
43581;DHT22;29175;51.030;4.606;2022-11-25T09:21:37;11.00;99.90
43581;DHT22;29175;51.030;4.606;2022-11-25T09:24:03;10.90;99.90
43581;DHT22;29175;51.030;4.606;2022-11-25T09:26:30;10.70;99.90
43581;DHT22;29175;51.030;4.606;2022-11-25T09:29:00;10.70;99.90
43581;DHT22;29175;51.030;4.606;2022-11-25T09:31:26;10.90;99.90
43581;DHT22;29175;51.030;4.606;2022-11-25T09:33:52;10.90;99.90
43581;DHT22;29175;51.030;4.606;2022-11-25T09:36:19;10.80;99.90
43581;DHT22;29175;51.030;4.606;2022-11-25T09:38:46;10.90;99.90
43581;DHT22;29175;51.030;4.606;2022-11-25T09:41:17;10.80;99.90
43581;DHT22;29175;51.030;4.606;2022-11-25T09:44:22;11.00;99.90
43581;DHT22;29175;51.030;4.606;2022-11-25T09:47:37;10.90;99.90
43581;DHT22;29175;51.030;4.606;2022-11-25T09:50:22;11.10;99.90
43581;DHT22;29175;51.030;4.606;2022-11-25T09:55:25;11.20;99.90
43581;DHT22;29175;51.030;4.606;2022-11-25T09:58:34;11.20;99.90
43581;DHT22;29175;51.030;4.606;2022-11-25T10:00:53;11.20;99.90
43581;DHT22;29175;51.030;4.606;2022-11-25T10:03:44;11.10;99.90
43581;DHT22;29175;51.030;4.606;2022-11-25T10:06:14;11.10;99.90
43581;DHT22;29175;51.030;4.606;2022-11-25T10:08:49;11.10;99.90
43581;DHT22;29175;51.030;4.606;2022-11-25T10:11:34;11.30;99.90
43581;DHT22;29175;51.030;4.606;2022-11-25T10:14:10;11.40;99.90
43581;DHT22;29175;51.030;4.606;2022-11-25T10:17:03;11.60;99.90
43581;DHT22;29175;51.030;4.606;2022-11-25T10:24:48;11.90;99.90
43581;DHT22;29175;51.030;4.606;2022-11-25T10:27:26;12.00;99.90
43581;DHT22;29175;51.030;4.606;2022-11-25T10:30:02;11.90;99.90
43581;DHT22;29175;51.030;4.606;2022-11-25T10:32:40;11.70;99.90
43581;DHT22;29175;51.030;4.606;2022-11-25T10:35:23;11.80;99.90
43581;DHT22;29175;51.030;4.606;2022-11-25T10:37:52;11.80;99.90
43581;DHT22;29175;51.030;4.606;2022-11-25T10:40:20;12.00;99.90
43581;DHT22;29175;51.030;4.606;2022-11-25T10:42:46;12.30;99.90
43581;DHT22;29175;51.030;4.606;2022-11-25T10:45:11;12.80;99.90
43581;DHT22;29175;51.030;4.606;2022-11-25T10:50:32;13.10;99.90
43581;DHT22;29175;51.030;4.606;2022-11-25T10:53:02;13.10;99.90
43581;DHT22;29175;51.030;4.606;2022-11-25T10:55:35;13.30;99.90
43581;DHT22;29175;51.030;4.606;2022-11-25T10:58:29;13.80;99.90
43581;DHT22;29175;51.030;4.606;2022-11-25T11:03:37;14.20;99.90
43581;DHT22;29175;51.030;4.606;2022-11-25T11:06:03;13.90;99.90
43581;DHT22;29175;51.030;4.606;2022-11-25T11:08:39;13.80;99.90
43581;DHT22;29175;51.030;4.606;2022-11-25T11:11:21;13.50;99.90
43581;DHT22;29175;51.030;4.606;2022-11-25T11:13:48;13.80;99.90
43581;DHT22;29175;51.030;4.606;2022-11-25T11:16:33;13.70;99.90
43581;DHT22;29175;51.030;4.606;2022-11-25T11:19:01;13.90;99.90
43581;DHT22;29175;51.030;4.606;2022-11-25T11:21:35;13.60;99.90
43581;DHT22;29175;51.030;4.606;2022-11-25T11:24:13;13.60;99.90
43581;DHT22;29175;51.030;4.606;2022-11-25T11:27:03;13.50;99.90
43581;DHT22;29175;51.030;4.606;2022-11-25T11:29:29;13.30;99.90
43581;DHT22;29175;51.030;4.606;2022-11-25T11:32:00;13.30;99.90
43581;DHT22;29175;51.030;4.606;2022-11-25T11:42:13;13.10;99.90
43581;DHT22;29175;51.030;4.606;2022-11-25T11:48:08;12.80;99.90
43581;DHT22;29175;51.030;4.606;2022-11-25T12:04:34;13.20;99.90
43581;DHT22;29175;51.030;4.606;2022-11-25T12:07:09;13.20;99.90
43581;DHT22;29175;51.030;4.606;2022-11-25T12:09:47;13.10;99.90
43581;DHT22;29175;51.030;4.606;2022-11-25T12:12:17;12.70;99.90
43581;DHT22;29175;51.030;4.606;2022-11-25T12:14:56;12.80;99.90
43581;DHT22;29175;51.030;4.606;2022-11-25T12:17:33;12.80;99.90
43581;DHT22;29175;51.030;4.606;2022-11-25T12:20:13;12.90;99.90
43581;DHT22;29175;51.030;4.606;2022-11-25T12:22:42;13.00;99.90
43581;DHT22;29175;51.030;4.606;2022-11-25T12:25:10;13.00;99.90
43581;DHT22;29175;51.030;4.606;2022-11-25T12:27:46;13.00;99.90
43581;DHT22;29175;51.030;4.606;2022-11-25T12:30:28;13.00;99.90
43581;DHT22;29175;51.030;4.606;2022-11-25T12:33:14;13.00;99.90
43581;DHT22;29175;51.030;4.606;2022-11-25T12:36:05;13.10;99.90
43581;DHT22;29175;51.030;4.606;2022-11-25T12:38:45;13.30;99.90
43581;DHT22;29175;51.030;4.606;2022-11-25T12:41:20;12.90;99.90
43581;DHT22;29175;51.030;4.606;2022-11-25T12:44:11;12.80;99.90
43581;DHT22;29175;51.030;4.606;2022-11-25T12:46:46;12.80;99.90
43581;DHT22;29175;51.030;4.606;2022-11-25T12:49:42;12.90;99.90
43581;DHT22;29175;51.030;4.606;2022-11-25T12:55:12;12.90;99.90
43581;DHT22;29175;51.030;4.606;2022-11-25T12:58:17;12.80;99.90
43581;DHT22;29175;51.030;4.606;2022-11-25T13:12:33;12.70;99.90
43581;DHT22;29175;51.030;4.606;2022-11-25T13:17:45;13.00;99.90
43581;DHT22;29175;51.030;4.606;2022-11-25T13:25:43;12.90;99.90
43581;DHT22;29175;51.030;4.606;2022-11-25T13:31:16;13.00;99.90
43581;DHT22;29175;51.030;4.606;2022-11-25T13:36:22;13.30;99.90
43581;DHT22;29175;51.030;4.606;2022-11-25T13:41:35;13.40;99.90
43581;DHT22;29175;51.030;4.606;2022-11-25T13:44:34;13.40;99.90
43581;DHT22;29175;51.030;4.606;2022-11-25T13:47:31;13.30;99.90
43581;DHT22;29175;51.030;4.606;2022-11-25T13:50:17;13.70;99.90
43581;DHT22;29175;51.030;4.606;2022-11-25T13:53:05;13.80;99.90
43581;DHT22;29175;51.030;4.606;2022-11-25T14:23:22;13.50;99.90
43581;DHT22;29175;51.030;4.606;2022-11-25T14:26:00;13.40;99.90
43581;DHT22;29175;51.030;4.606;2022-11-25T14:30:59;13.20;99.90
43581;DHT22;29175;51.030;4.606;2022-11-25T14:33:55;13.10;99.90
43581;DHT22;29175;51.030;4.606;2022-11-25T14:36:33;13.20;99.90
43581;DHT22;29175;51.030;4.606;2022-11-25T14:39:05;13.40;99.90
43581;DHT22;29175;51.030;4.606;2022-11-25T14:41:53;13.60;99.90
43581;DHT22;29175;51.030;4.606;2022-11-25T14:44:26;13.40;99.90
43581;DHT22;29175;51.030;4.606;2022-11-25T14:46:56;13.40;99.90
43581;DHT22;29175;51.030;4.606;2022-11-25T14:49:22;13.50;99.90
43581;DHT22;29175;51.030;4.606;2022-11-25T14:51:50;13.60;99.90
43581;DHT22;29175;51.030;4.606;2022-11-25T14:54:20;13.30;99.90
43581;DHT22;29175;51.030;4.606;2022-11-25T14:56:48;13.30;99.90
43581;DHT22;29175;51.030;4.606;2022-11-25T14:59:16;13.30;99.90
43581;DHT22;29175;51.030;4.606;2022-11-25T15:01:54;13.00;99.90
43581;DHT22;29175;51.030;4.606;2022-11-25T15:04:24;13.20;99.90
43581;DHT22;29175;51.030;4.606;2022-11-25T15:06:51;13.10;99.90
43581;DHT22;29175;51.030;4.606;2022-11-25T15:11:43;12.90;99.90
43581;DHT22;29175;51.030;4.606;2022-11-25T15:14:33;12.80;99.90
43581;DHT22;29175;51.030;4.606;2022-11-25T15:17:00;12.70;99.90
43581;DHT22;29175;51.030;4.606;2022-11-25T15:19:32;12.50;99.90
43581;DHT22;29175;51.030;4.606;2022-11-25T15:22:01;12.40;99.90
43581;DHT22;29175;51.030;4.606;2022-11-25T15:24:43;12.40;99.90
43581;DHT22;29175;51.030;4.606;2022-11-25T15:27:26;12.30;99.90
43581;DHT22;29175;51.030;4.606;2022-11-25T15:29:54;12.30;99.90
43581;DHT22;29175;51.030;4.606;2022-11-25T15:32:28;12.20;99.90
43581;DHT22;29175;51.030;4.606;2022-11-25T15:34:57;12.20;99.90
43581;DHT22;29175;51.030;4.606;2022-11-25T15:37:27;12.10;99.90
43581;DHT22;29175;51.030;4.606;2022-11-25T15:43:23;12.00;99.90
43581;DHT22;29175;51.030;4.606;2022-11-25T15:45:53;11.90;99.90
43581;DHT22;29175;51.030;4.606;2022-11-25T15:48:31;11.80;99.90
43581;DHT22;29175;51.030;4.606;2022-11-25T15:51:05;11.90;99.90
43581;DHT22;29175;51.030;4.606;2022-11-25T15:53:32;11.90;99.90
43581;DHT22;29175;51.030;4.606;2022-11-25T15:56:03;11.80;99.90
43581;DHT22;29175;51.030;4.606;2022-11-25T15:58:30;11.80;99.90
43581;DHT22;29175;51.030;4.606;2022-11-25T16:01:05;11.70;99.90
43581;DHT22;29175;51.030;4.606;2022-11-25T16:03:31;11.70;99.90
43581;DHT22;29175;51.030;4.606;2022-11-25T16:06:00;11.80;99.90
43581;DHT22;29175;51.030;4.606;2022-11-25T16:08:39;12.00;99.90
43581;DHT22;29175;51.030;4.606;2022-11-25T16:11:13;12.10;99.90
43581;DHT22;29175;51.030;4.606;2022-11-25T16:13:41;12.00;99.90
43581;DHT22;29175;51.030;4.606;2022-11-25T16:16:18;11.90;99.90
43581;DHT22;29175;51.030;4.606;2022-11-25T16:19:16;11.80;99.90
43581;DHT22;29175;51.030;4.606;2022-11-25T16:21:59;11.70;99.90
43581;DHT22;29175;51.030;4.606;2022-11-25T16:24:37;11.70;99.90
43581;DHT22;29175;51.030;4.606;2022-11-25T16:27:22;11.70;99.90
43581;DHT22;29175;51.030;4.606;2022-11-25T16:29:53;11.70;99.90
43581;DHT22;29175;51.030;4.606;2022-11-25T16:32:27;11.60;99.90
43581;DHT22;29175;51.030;4.606;2022-11-25T16:35:05;11.60;99.90
43581;DHT22;29175;51.030;4.606;2022-11-25T16:37:36;11.50;99.90
43581;DHT22;29175;51.030;4.606;2022-11-25T16:40:03;11.50;99.90
43581;DHT22;29175;51.030;4.606;2022-11-25T16:42:30;11.40;99.90
43581;DHT22;29175;51.030;4.606;2022-11-25T16:44:59;11.30;99.90
43581;DHT22;29175;51.030;4.606;2022-11-25T16:47:27;11.20;99.90
43581;DHT22;29175;51.030;4.606;2022-11-25T16:49:52;11.20;99.90
43581;DHT22;29175;51.030;4.606;2022-11-25T16:52:18;11.20;99.90
43581;DHT22;29175;51.030;4.606;2022-11-25T16:54:44;11.10;99.90
43581;DHT22;29175;51.030;4.606;2022-11-25T16:57:16;11.10;99.90
43581;DHT22;29175;51.030;4.606;2022-11-25T16:59:44;11.10;99.90
43581;DHT22;29175;51.030;4.606;2022-11-25T17:02:17;11.00;99.90
43581;DHT22;29175;51.030;4.606;2022-11-25T17:04:44;11.00;99.90
43581;DHT22;29175;51.030;4.606;2022-11-25T17:07:12;10.80;99.90
43581;DHT22;29175;51.030;4.606;2022-11-25T17:09:38;10.80;99.90
43581;DHT22;29175;51.030;4.606;2022-11-25T17:12:04;10.90;99.90
43581;DHT22;29175;51.030;4.606;2022-11-25T17:14:33;10.80;99.90
43581;DHT22;29175;51.030;4.606;2022-11-25T17:17:00;10.80;99.90
43581;DHT22;29175;51.030;4.606;2022-11-25T17:19:28;10.70;99.90
43581;DHT22;29175;51.030;4.606;2022-11-25T17:21:53;10.70;99.90
43581;DHT22;29175;51.030;4.606;2022-11-25T17:24:23;10.60;99.90
43581;DHT22;29175;51.030;4.606;2022-11-25T17:27:00;10.60;99.90
43581;DHT22;29175;51.030;4.606;2022-11-25T17:29:36;10.60;99.90
43581;DHT22;29175;51.030;4.606;2022-11-25T17:32:04;10.60;99.90
43581;DHT22;29175;51.030;4.606;2022-11-25T17:34:30;10.40;99.90
43581;DHT22;29175;51.030;4.606;2022-11-25T17:36:56;10.40;99.90
43581;DHT22;29175;51.030;4.606;2022-11-25T17:39:22;10.30;99.90
43581;DHT22;29175;51.030;4.606;2022-11-25T17:41:50;10.30;99.90
43581;DHT22;29175;51.030;4.606;2022-11-25T17:44:26;10.30;99.90
43581;DHT22;29175;51.030;4.606;2022-11-25T17:46:54;10.40;99.90
43581;DHT22;29175;51.030;4.606;2022-11-25T17:49:20;10.30;99.90
43581;DHT22;29175;51.030;4.606;2022-11-25T17:51:47;10.30;99.90
43581;DHT22;29175;51.030;4.606;2022-11-25T17:54:15;10.20;99.90